Time;durP1;ratioP1;P1;durP2;ratioP2;P2;SDS_P1;SDS_P2;PMS_P1;PMS_P2;Temp;Humidity;BMP_temperature;BMP_pressure;BME280_temperature;BME280_humidity;BME280_pressure;Samples;Min_cycle;Max_cycle;Signal;HPM_P1;HPM_P2
2023/03/03 09:01:19;;;;;;;61.83;28.20;;;;;;;7.27;59.17;96853.94;2098411;27;20561;-65
2023/03/03 09:02:20;;;;;;;52.63;27.75;;;;;;;8.07;57.91;96861.09;2087221;28;20232;-65
2023/03/03 09:03:21;;;;;;;52.97;26.65;;;;;;;9.46;54.06;96859.06;2090633;28;20671;-66
2023/03/03 09:04:23;;;;;;;60.22;27.20;;;;;;;9.66;52.68;96878.31;2088974;28;20253;-66
2023/03/03 09:05:25;;;;;;;56.33;25.98;;;;;;;9.98;52.10;96874.50;2087426;28;20253;-66
2023/03/03 09:06:27;;;;;;;50.08;25.65;;;;;;;10.19;51.33;96870.19;2086804;28;20204;-65
2023/03/03 09:07:28;;;;;;;53.72;27.10;;;;;;;9.03;53.58;96868.38;2082557;28;20281;-66
2023/03/03 09:08:29;;;;;;;48.20;25.45;;;;;;;9.07;53.03;96868.25;2084196;28;20201;-66
2023/03/03 09:09:31;;;;;;;48.92;26.60;;;;;;;9.52;52.88;96864.03;2081768;28;20201;-65
2023/03/03 09:10:34;;;;;;;59.83;28.35;;;;;;;10.42;50.94;96878.91;2081505;28;20206;-66
2023/03/03 09:11:35;;;;;;;58.80;28.50;;;;;;;10.54;49.32;96878.41;2080618;28;20229;-66
2023/03/03 09:12:43;;;;;;;55.38;27.83;;;;;;;9.67;51.16;96883.47;2082771;28;20656;-66
2023/03/03 09:13:44;;;;;;;54.50;26.40;;;;;;;10.59;49.97;96876.44;2082436;28;20298;-67
2023/03/03 09:14:46;;;;;;;49.53;27.30;;;;;;;10.98;48.37;96877.44;2082977;28;20648;-65
2023/03/03 09:15:49;;;;;;;57.30;27.73;;;;;;;11.14;47.78;96872.41;2082598;28;20231;-66
2023/03/03 09:16:52;;;;;;;51.97;28.33;;;;;;;10.22;49.42;96882.25;2081341;28;20847;-66
2023/03/03 09:17:58;;;;;;;50.00;26.98;;;;;;;10.19;50.71;96878.00;2081315;28;20196;-66
2023/03/03 09:19:15;;;;;;;48.53;25.98;;;;;;;10.73;49.27;96885.50;2082790;28;20207;-67
2023/03/03 09:20:17;;;;;;;48.25;25.73;;;;;;;11.95;46.91;96889.75;2082467;28;20197;-66
2023/03/03 09:21:25;;;;;;;50.85;25.80;;;;;;;11.03;48.12;96888.56;2079015;28;20225;-66
2023/03/03 09:22:27;;;;;;;45.35;26.02;;;;;;;11.07;48.78;96894.50;2079069;28;20198;-66
2023/03/03 09:23:34;;;;;;;51.25;26.50;;;;;;;11.75;46.21;96892.38;2081853;28;20192;-67
2023/03/03 09:24:36;;;;;;;48.65;25.83;;;;;;;11.64;46.08;96886.78;2081326;28;20289;-66
2023/03/03 09:25:37;;;;;;;47.80;25.08;;;;;;;12.06;46.12;96900.63;2081694;28;20239;-66
2023/03/03 09:26:45;;;;;;;44.10;23.40;;;;;;;12.09;45.95;96887.41;2081912;28;20335;-68
2023/03/03 09:27:47;;;;;;;43.25;24.00;;;;;;;11.96;46.07;96892.38;2082403;28;20573;-68
2023/03/03 09:28:48;;;;;;;48.67;25.20;;;;;;;12.41;45.60;96896.31;2080144;28;20235;-68
2023/03/03 09:29:50;;;;;;;40.10;23.15;;;;;;;12.84;44.64;96898.63;2079988;28;20208;-69
2023/03/03 09:30:54;;;;;;;41.17;24.02;;;;;;;13.90;43.35;96896.72;2081197;28;20209;-68
2023/03/03 09:31:59;;;;;;;41.83;25.08;;;;;;;13.62;43.22;96898.19;2080229;28;20639;-68
2023/03/03 09:33:18;;;;;;;37.22;22.65;;;;;;;12.88;43.49;96900.16;2078921;28;20696;-69
2023/03/03 09:34:30;;;;;;;38.72;23.20;;;;;;;-145.49;100.00;55703.94;2080098;28;20212;-66
2023/03/03 09:35:37;;;;;;;46.58;24.13;;;;;;;-145.49;100.00;55703.94;2081717;28;20201;-66
2023/03/03 09:36:38;;;;;;;43.22;25.00;;;;;;;-145.49;100.00;55703.94;2083070;28;20638;-66
2023/03/03 09:37:40;;;;;;;44.38;25.42;;;;;;;-145.49;100.00;55703.94;2087015;28;20220;-66
2023/03/03 09:38:43;;;;;;;38.33;23.60;;;;;;;-145.49;100.00;55703.94;2087859;28;20237;-67
2023/03/03 09:39:48;;;;;;;45.33;24.02;;;;;;;-145.49;100.00;55703.94;2089922;28;20630;-66
2023/03/03 09:41:24;;;;;;;42.63;24.05;;;;;;;-145.49;100.00;55703.94;2091596;28;20299;-66
2023/03/03 09:43:03;;;;;;;37.15;21.55;;;;;;;-145.49;100.00;55703.94;2088789;28;20616;-66
2023/03/03 09:44:22;;;;;;;40.10;23.10;;;;;;;-145.49;100.00;55703.94;2090641;28;20612;-66
2023/03/03 09:45:49;;;;;;;41.70;24.70;;;;;;;-145.49;100.00;55703.94;2088625;28;20679;-67
2023/03/03 09:47:09;;;;;;;37.20;23.13;;;;;;;-145.49;100.00;55703.94;2083604;28;20251;-67
2023/03/03 09:48:16;;;;;;;39.67;23.58;;;;;;;-145.49;100.00;55703.94;2082901;28;20212;-67
2023/03/03 09:49:32;;;;;;;33.83;21.27;;;;;;;-145.49;100.00;55703.94;2080316;28;20211;-66
2023/03/03 09:50:56;;;;;;;35.90;22.90;;;;;;;-145.49;100.00;55703.94;2083527;28;20240;-66
2023/03/03 09:52:15;;;;;;;41.00;22.20;;;;;;;-145.49;100.00;55703.94;2080783;28;20399;-66
2023/03/03 09:53:44;;;;;;;36.97;23.63;;;;;;;-145.49;100.00;55703.94;2082500;28;20201;-66
2023/03/03 09:54:53;;;;;;;34.80;22.00;;;;;;;-145.49;100.00;55703.94;2081732;28;20244;-67
2023/03/03 09:56:03;;;;;;;34.35;22.20;;;;;;;-145.49;100.00;55703.94;2082146;28;20651;-67
2023/03/03 09:57:13;;;;;;;40.50;23.00;;;;;;;-145.49;100.00;55703.94;2081197;28;20256;-67
2023/03/03 09:58:33;;;;;;;36.80;23.65;;;;;;;-145.49;100.00;55703.94;2082705;28;20228;-66
2023/03/03 09:59:43;;;;;;;35.65;22.50;;;;;;;-145.49;100.00;55703.94;2082252;28;20212;-67
2023/03/03 10:01:09;;;;;;;44.80;23.02;;;;;;;-145.49;100.00;55703.94;2078306;28;20705;-66
2023/03/03 10:02:13;;;;;;;45.50;24.05;;;;;;;-145.49;100.00;55703.94;2088927;28;20223;-66
2023/03/03 10:03:36;;;;;;;38.47;24.42;;;;;;;-145.49;100.00;55703.94;2090307;28;20192;-66
2023/03/03 10:04:46;;;;;;;37.45;23.05;;;;;;;-145.49;100.00;55703.94;2090063;28;20203;-66
2023/03/03 10:06:12;;;;;;;39.75;22.15;;;;;;;-145.49;100.00;55703.94;2090268;28;20633;-66
2023/03/03 10:07:33;;;;;;;40.90;22.17;;;;;;;-145.49;100.00;55703.94;2087877;28;20292;-66
2023/03/03 10:08:46;;;;;;;35.22;22.95;;;;;;;-145.49;100.00;55703.94;2087630;28;20200;-66
2023/03/03 10:10:06;;;;;;;35.63;22.40;;;;;;;-145.49;100.00;55703.94;2090552;28;20203;-67
2023/03/03 10:11:30;;;;;;;38.08;24.02;;;;;;;-145.49;100.00;55703.94;2090345;28;20647;-66
2023/03/03 10:12:55;;;;;;;34.80;22.38;;;;;;;-145.49;100.00;55703.94;2077984;28;20229;-66
2023/03/03 10:14:22;;;;;;;44.47;24.65;;;;;;;-145.49;100.00;55703.94;2077133;28;20193;-66
2023/03/03 10:15:35;;;;;;;37.63;22.95;;;;;;;-145.49;100.00;55703.94;2076612;28;20231;-68
2023/03/03 10:16:55;;;;;;;50.63;24.30;;;;;;;-145.49;100.00;55703.94;2075165;28;20724;-68
2023/03/03 10:18:03;;;;;;;38.72;23.30;;;;;;;-145.49;100.00;55703.94;2076667;28;20205;-68
2023/03/03 10:19:33;;;;;;;36.60;23.52;;;;;;;-145.49;100.00;55703.94;2074992;28;20245;-67
2023/03/03 10:20:52;;;;;;;41.20;22.60;;;;;;;-145.49;100.00;55703.94;2078849;28;20197;-66
2023/03/03 10:22:23;;;;;;;39.60;21.65;;;;;;;-145.49;100.00;55703.94;2072193;28;20232;-66
2023/03/03 10:23:51;;;;;;;43.40;22.73;;;;;;;-145.49;100.00;55703.94;2073963;28;20201;-66
2023/03/03 10:25:07;;;;;;;47.00;22.40;;;;;;;-145.49;100.00;55703.94;2060693;28;20249;-66
2023/03/03 10:26:34;;;;;;;39.72;23.00;;;;;;;-145.49;100.00;55703.94;2078323;28;20208;-66
2023/03/03 10:28:06;;;;;;;40.28;23.35;;;;;;;-145.49;100.00;55703.94;2084591;28;20216;-67
2023/03/03 10:29:26;;;;;;;33.10;21.83;;;;;;;-145.49;100.00;55703.94;2085283;28;20200;-66
2023/03/03 10:30:52;;;;;;;37.70;22.27;;;;;;;-145.49;100.00;55703.94;2085147;28;20893;-66
2023/03/03 10:32:34;;;;;;;35.67;21.92;;;;;;;-145.49;100.00;55703.94;2075241;28;20241;-66
2023/03/03 10:33:36;;;;;;;37.78;24.40;;;;;;;-145.49;100.00;55703.94;2074362;28;20197;-66
2023/03/03 10:35:12;;;;;;;40.88;23.25;;;;;;;-145.49;100.00;55703.94;2075625;28;20208;-66
2023/03/03 10:36:51;;;;;;;39.42;22.02;;;;;;;-145.49;100.00;55703.94;2074537;28;20193;-65
2023/03/03 10:37:55;;;;;;;36.83;22.33;;;;;;;-145.49;100.00;55703.94;2074353;28;20201;-65
2023/03/03 10:39:21;;;;;;;40.92;21.50;;;;;;;-145.49;100.00;55703.94;2077235;28;20198;-66
2023/03/03 10:40:38;;;;;;;34.70;21.73;;;;;;;-145.49;100.00;55703.94;2074485;28;20197;-67
2023/03/03 10:41:53;;;;;;;42.17;23.88;;;;;;;-145.49;100.00;55703.94;2074578;28;20252;-66
2023/03/03 10:43:45;;;;;;;37.35;21.20;;;;;;;-145.49;100.00;55703.94;2076724;28;20203;-66
2023/03/03 10:45:11;;;;;;;46.47;22.88;;;;;;;-145.49;100.00;55703.94;2053828;28;20215;-66
2023/03/03 10:46:33;;;;;;;52.08;22.95;;;;;;;-145.49;100.00;55703.94;2054906;28;20206;-65
2023/03/03 10:47:43;;;;;;;38.75;21.52;;;;;;;-145.49;100.00;55703.94;2054731;28;20245;-66
2023/03/03 10:49:13;;;;;;;38.35;22.33;;;;;;;-145.49;100.00;55703.94;2055402;28;20199;-66
2023/03/03 10:50:40;;;;;;;44.17;23.05;;;;;;;-145.49;100.00;55703.94;2053831;28;20202;-66
2023/03/03 10:51:44;;;;;;;41.50;23.00;;;;;;;-145.49;100.00;55703.94;2053001;28;20223;-66
2023/03/03 10:52:50;;;;;;;36.25;22.20;;;;;;;-145.49;100.00;55703.94;2055128;28;20230;-66
2023/03/03 10:54:08;;;;;;;40.40;23.92;;;;;;;-145.49;100.00;55703.94;2055107;28;20973;-66
2023/03/03 10:55:19;;;;;;;36.70;20.80;;;;;;;-145.49;100.00;55703.94;2051670;28;20241;-66
2023/03/03 10:56:35;;;;;;;39.88;22.65;;;;;;;-145.49;100.00;55703.94;2053625;28;20215;-65
2023/03/03 10:58:04;;;;;;;35.75;21.52;;;;;;;-145.49;100.00;55703.94;2053881;28;20207;-66
2023/03/03 10:59:40;;;;;;;41.33;23.92;;;;;;;-145.49;100.00;55703.94;2052760;28;20200;-66
2023/03/03 11:00:56;;;;;;;43.83;21.60;;;;;;;-145.49;100.00;55703.94;2054534;28;20297;-65
2023/03/03 11:02:21;;;;;;;40.20;23.20;;;;;;;-145.49;100.00;55703.94;2053056;28;20763;-66
2023/03/03 11:03:46;;;;;;;40.95;22.80;;;;;;;-145.49;100.00;55703.94;2054123;28;20213;-66
2023/03/03 11:05:30;;;;;;;36.90;22.67;;;;;;;-145.49;100.00;55703.94;2055062;28;20203;-66
2023/03/03 11:06:57;;;;;;;33.25;20.52;;;;;;;-145.49;100.00;55703.94;2018988;29;20962;-66
2023/03/03 11:08:07;;;;;;;35.92;22.17;;;;;;;-145.49;100.00;55703.94;2017229;29;20224;-67
2023/03/03 11:09:27;;;;;;;37.00;22.33;;;;;;;-145.49;100.00;55703.94;2016226;29;20202;-66
2023/03/03 11:11:04;;;;;;;35.78;22.25;;;;;;;-145.49;100.00;55703.94;2017222;29;20666;-66
2023/03/03 11:12:18;;;;;;;39.25;22.65;;;;;;;-145.49;100.00;55703.94;2016170;29;20259;-67
2023/03/03 11:13:56;;;;;;;29.27;20.40;;;;;;;-145.49;100.00;55703.94;2019173;29;20257;-67
2023/03/03 11:15:25;;;;;;;37.38;22.58;;;;;;;-145.49;100.00;55703.94;2018577;29;20640;-67
2023/03/03 11:16:59;;;;;;;36.38;21.27;;;;;;;-145.49;100.00;55703.94;2029778;29;20680;-66
2023/03/03 11:18:14;;;;;;;40.17;22.45;;;;;;;-145.49;100.00;55703.94;2043515;29;20214;-67
2023/03/03 11:19:24;;;;;;;41.28;22.65;;;;;;;-145.49;100.00;55703.94;2042069;29;20697;-67
2023/03/03 11:20:41;;;;;;;42.67;21.75;;;;;;;-145.49;100.00;55703.94;2044981;29;20254;-67
2023/03/03 11:21:54;;;;;;;39.05;22.77;;;;;;;-145.49;100.00;55703.94;2035828;29;20650;-66
2023/03/03 11:23:15;;;;;;;41.97;22.45;;;;;;;-145.49;100.00;55703.94;2037086;29;20302;-67
2023/03/03 11:24:35;;;;;;;39.17;21.70;;;;;;;-145.49;100.00;55703.94;2041270;29;20305;-67
2023/03/03 11:25:50;;;;;;;33.05;21.25;;;;;;;-145.49;100.00;55703.94;2040523;29;20200;-67
2023/03/03 11:27:03;;;;;;;36.80;22.10;;;;;;;-145.49;100.00;55703.94;2042254;28;20233;-66
2023/03/03 11:28:28;;;;;;;36.38;21.80;;;;;;;-145.49;100.00;55703.94;2041057;29;20256;-67
2023/03/03 11:29:54;;;;;;;41.42;23.13;;;;;;;-145.49;100.00;55703.94;2042283;29;20204;-67
2023/03/03 11:31:19;;;;;;;39.00;21.13;;;;;;;-145.49;100.00;55703.94;2042551;29;20199;-67
2023/03/03 11:32:51;;;;;;;35.78;21.15;;;;;;;-145.49;100.00;55703.94;2038873;29;20215;-66
2023/03/03 11:34:11;;;;;;;37.55;20.63;;;;;;;-145.49;100.00;55703.94;2039602;29;20668;-67
2023/03/03 11:35:24;;;;;;;43.45;22.30;;;;;;;-145.49;100.00;55703.94;2040609;29;20208;-66
2023/03/03 11:36:31;;;;;;;42.28;22.17;;;;;;;-145.49;100.00;55703.94;2041149;29;20207;-66
2023/03/03 11:37:47;;;;;;;39.83;22.58;;;;;;;-145.49;100.00;55703.94;2043688;29;20196;-66
2023/03/03 11:38:59;;;;;;;48.38;22.33;;;;;;;-145.49;100.00;55703.94;2072529;28;20216;-67
2023/03/03 11:40:11;;;;;;;38.78;21.40;;;;;;;-145.49;100.00;55703.94;2072557;28;20197;-67
2023/03/03 11:41:21;;;;;;;40.17;22.15;;;;;;;-145.49;100.00;55703.94;2072596;28;20248;-65
2023/03/03 11:42:46;;;;;;;37.28;23.95;;;;;;;-145.49;100.00;55703.94;2074416;28;20240;-66
2023/03/03 11:44:29;;;;;;;42.15;24.05;;;;;;;-145.49;100.00;55703.94;2075350;28;20202;-66
2023/03/03 11:45:39;;;;;;;36.65;23.15;;;;;;;-145.49;100.00;55703.94;2064795;28;20208;-65
2023/03/03 11:46:50;;;;;;;43.63;21.77;;;;;;;-145.49;100.00;55703.94;2076941;28;20237;-66
2023/03/03 11:48:21;;;;;;;37.13;21.20;;;;;;;-145.49;100.00;55703.94;2075271;28;20910;-66
2023/03/03 11:49:34;;;;;;;39.60;23.70;;;;;;;-145.49;100.00;55703.94;2071537;28;20881;-66
2023/03/03 11:50:55;;;;;;;45.13;22.13;;;;;;;-145.49;100.00;55703.94;2076626;28;20556;-66
2023/03/03 11:52:11;;;;;;;42.63;21.60;;;;;;;-145.49;100.00;55703.94;2073462;28;20237;-66
2023/03/03 11:53:15;;;;;;;59.60;23.40;;;;;;;-145.49;100.00;55703.94;2072378;28;20209;-66
2023/03/03 11:54:27;;;;;;;42.50;22.02;;;;;;;-145.49;100.00;55703.94;2072595;28;20225;-66
2023/03/03 11:55:36;;;;;;;40.25;21.63;;;;;;;-145.49;100.00;55703.94;2072180;28;20680;-66
2023/03/03 11:56:41;;;;;;;47.45;21.73;;;;;;;-145.49;100.00;55703.94;2072844;28;20705;-66
2023/03/03 11:57:50;;;;;;;41.90;23.75;;;;;;;-145.49;100.00;55703.94;2075855;28;20205;-66
2023/03/03 11:59:15;;;;;;;42.92;21.17;;;;;;;-145.49;100.00;55703.94;2075729;28;20612;-66
2023/03/03 12:00:38;;;;;;;43.38;22.23;;;;;;;-145.49;100.00;55703.94;2068818;28;20252;-64
2023/03/03 12:01:53;;;;;;;43.38;22.52;;;;;;;-145.49;100.00;55703.94;2073323;28;20235;-66
2023/03/03 12:03:13;;;;;;;47.22;22.50;;;;;;;-145.49;100.00;55703.94;2075954;28;20208;-66
2023/03/03 12:04:19;;;;;;;41.00;21.77;;;;;;;-145.49;100.00;55703.94;2075937;28;20283;-66
2023/03/03 12:05:44;;;;;;;42.35;22.27;;;;;;;-145.49;100.00;55703.94;2076231;28;20193;-66
2023/03/03 12:07:10;;;;;;;41.35;22.50;;;;;;;-145.49;100.00;55703.94;2066526;28;20221;-65
2023/03/03 12:08:36;;;;;;;41.33;21.92;;;;;;;-145.49;100.00;55703.94;2075442;28;20198;-66
2023/03/03 12:10:01;;;;;;;40.88;23.10;;;;;;;-145.49;100.00;55703.94;2076871;28;20607;-66
2023/03/03 12:11:38;;;;;;;40.83;23.20;;;;;;;-145.49;100.00;55703.94;2074259;28;20221;-66
2023/03/03 12:12:43;;;;;;;40.92;21.48;;;;;;;-145.49;100.00;55703.94;2057890;28;20640;-66
2023/03/03 12:13:48;;;;;;;47.90;24.85;;;;;;;-145.49;100.00;55703.94;2077964;28;20203;-66
2023/03/03 12:14:57;;;;;;;40.03;22.33;;;;;;;-145.49;100.00;55703.94;2084742;28;20205;-65
2023/03/03 12:16:14;;;;;;;37.13;22.05;;;;;;;-145.49;100.00;55703.94;2082277;28;20317;-66
2023/03/03 12:17:24;;;;;;;42.22;22.73;;;;;;;-145.49;100.00;55703.94;2083258;28;20241;-65
2023/03/03 12:18:43;;;;;;;36.53;21.60;;;;;;;-145.49;100.00;55703.94;2080215;28;20193;-66
2023/03/03 12:20:21;;;;;;;46.40;22.80;;;;;;;-145.49;100.00;55703.94;2081483;28;20196;-66
2023/03/03 12:21:32;;;;;;;40.88;21.60;;;;;;;-145.49;100.00;55703.94;2081522;28;20196;-65
2023/03/03 12:22:43;;;;;;;46.88;22.25;;;;;;;-145.49;100.00;55703.94;2075667;28;20245;-66
2023/03/03 12:24:02;;;;;;;40.97;22.70;;;;;;;-145.49;100.00;55703.94;2076453;28;20193;-66
2023/03/03 12:25:27;;;;;;;40.65;22.50;;;;;;;-145.49;100.00;55703.94;2073784;28;20229;-65
2023/03/03 12:26:49;;;;;;;40.13;22.40;;;;;;;-145.49;100.00;55703.94;2074334;28;20204;-68
2023/03/03 12:28:11;;;;;;;37.97;20.98;;;;;;;-145.49;100.00;55703.94;2076416;28;20190;-68
2023/03/03 12:29:29;;;;;;;38.97;21.80;;;;;;;-145.49;100.00;55703.94;2075605;28;20252;-68
2023/03/03 12:30:43;;;;;;;38.63;22.38;;;;;;;-145.49;100.00;55703.94;2073599;28;20573;-68
2023/03/03 12:31:53;;;;;;;40.70;21.75;;;;;;;-145.49;100.00;55703.94;2072521;28;20566;-68
2023/03/03 12:33:01;;;;;;;35.22;21.52;;;;;;;-145.49;100.00;55703.94;2073700;28;20189;-67
2023/03/03 12:34:08;;;;;;;41.80;22.60;;;;;;;-145.49;100.00;55703.94;2074518;28;20194;-68
2023/03/03 12:35:29;;;;;;;44.35;22.40;;;;;;;-145.49;100.00;55703.94;2074820;28;20292;-68
2023/03/03 12:36:40;;;;;;;46.65;21.90;;;;;;;-145.49;100.00;55703.94;2074586;28;20816;-67
2023/03/03 12:37:56;;;;;;;43.10;22.77;;;;;;;-145.49;100.00;55703.94;2075685;28;20197;-59
2023/03/03 12:39:12;;;;;;;39.13;22.00;;;;;;;-145.49;100.00;55703.94;2075636;28;20199;-59
2023/03/03 12:40:24;;;;;;;41.22;22.85;;;;;;;-145.49;100.00;55703.94;2076042;28;20212;-60
2023/03/03 12:41:32;;;;;;;42.08;22.15;;;;;;;-145.49;100.00;55703.94;2075346;28;20197;-59
2023/03/03 12:43:04;;;;;;;43.10;21.42;;;;;;;-145.49;100.00;55703.94;2074390;28;20648;-59
2023/03/03 12:44:13;;;;;;;37.90;21.00;;;;;;;-145.49;100.00;55703.94;2072023;28;20205;-59
2023/03/03 12:45:45;;;;;;;49.67;21.70;;;;;;;-145.49;100.00;55703.94;2072447;28;20201;-59
2023/03/03 12:47:01;;;;;;;41.03;20.83;;;;;;;-145.49;100.00;55703.94;2075344;28;20252;-59
2023/03/03 12:48:20;;;;;;;43.88;24.13;;;;;;;-145.49;100.00;55703.94;2075093;28;20848;-59
2023/03/03 12:49:36;;;;;;;41.22;22.23;;;;;;;-145.49;100.00;55703.94;2075401;28;20212;-59
2023/03/03 12:50:50;;;;;;;46.08;22.23;;;;;;;-145.49;100.00;55703.94;2075045;28;20198;-59
2023/03/03 12:52:10;;;;;;;39.55;22.58;;;;;;;-145.49;100.00;55703.94;2076343;28;20287;-59
2023/03/03 12:53:29;;;;;;;39.47;21.85;;;;;;;-145.49;100.00;55703.94;2074139;28;20313;-60
2023/03/03 12:54:57;;;;;;;37.72;21.83;;;;;;;-145.49;100.00;55703.94;2073924;28;20706;-59
2023/03/03 12:56:15;;;;;;;44.80;22.00;;;;;;;-145.49;100.00;55703.94;2074111;28;20485;-59
2023/03/03 12:57:42;;;;;;;39.83;21.48;;;;;;;-145.49;100.00;55703.94;2080509;28;20247;-59
2023/03/03 12:59:06;;;;;;;40.78;21.42;;;;;;;-145.49;100.00;55703.94;2077308;28;21077;-59
2023/03/03 13:00:16;;;;;;;40.05;22.88;;;;;;;-145.49;100.00;55703.94;2075690;28;20201;-59
2023/03/03 13:01:17;;;;;;;40.55;20.75;;;;;;;-145.49;100.00;55703.94;2075291;28;20201;-59
2023/03/03 13:02:28;;;;;;;38.92;22.73;;;;;;;-145.49;100.00;55703.94;2075686;28;20260;-59
2023/03/03 13:03:42;;;;;;;33.40;20.83;;;;;;;-145.49;100.00;55703.94;2074967;28;20336;-59
2023/03/03 13:05:06;;;;;;;39.28;22.17;;;;;;;-145.49;100.00;55703.94;2076937;28;20202;-59
2023/03/03 13:06:28;;;;;;;35.90;22.05;;;;;;;-145.49;100.00;55703.94;2075406;28;20555;-59
2023/03/03 13:07:44;;;;;;;44.20;21.50;;;;;;;-145.49;100.00;55703.94;2082808;28;20536;-59
2023/03/03 13:08:59;;;;;;;38.90;20.50;;;;;;;-145.49;100.00;55703.94;2083344;28;20193;-59
2023/03/03 13:10:25;;;;;;;43.35;23.08;;;;;;;-145.49;100.00;55703.94;2087390;28;20551;-59
2023/03/03 13:11:44;;;;;;;39.72;21.30;;;;;;;-145.49;100.00;55703.94;2084773;28;20224;-60
2023/03/03 13:13:07;;;;;;;40.35;21.30;;;;;;;-145.49;100.00;55703.94;2085193;28;20199;-60
2023/03/03 13:14:42;;;;;;;37.10;21.90;;;;;;;-145.49;100.00;55703.94;2081664;28;20230;-59
2023/03/03 13:16:11;;;;;;;38.45;21.45;;;;;;;-145.49;100.00;55703.94;2070271;28;20205;-59
2023/03/03 13:17:27;;;;;;;46.20;21.83;;;;;;;-145.49;100.00;55703.94;2084086;28;20291;-59
2023/03/03 13:18:56;;;;;;;39.53;21.88;;;;;;;-145.49;100.00;55703.94;2084971;28;20207;-59
2023/03/03 13:20:35;;;;;;;41.80;21.70;;;;;;;-145.49;100.00;55703.94;2078328;28;20745;-60
2023/03/03 13:21:48;;;;;;;44.38;21.20;;;;;;;-145.49;100.00;55703.94;2082597;28;20414;-59
2023/03/03 13:23:03;;;;;;;35.88;20.00;;;;;;;-145.49;100.00;55703.94;2082957;28;20255;-60
2023/03/03 13:24:13;;;;;;;41.70;21.58;;;;;;;-145.49;100.00;55703.94;2081818;28;20196;-59
2023/03/03 13:25:34;;;;;;;40.10;20.98;;;;;;;-145.49;100.00;55703.94;2084499;28;20847;-60
2023/03/03 13:27:03;;;;;;;32.97;19.38;;;;;;;-145.49;100.00;55703.94;2081471;28;20322;-57
2023/03/03 13:28:20;;;;;;;33.40;19.45;;;;;;;-145.49;100.00;55703.94;2083213;28;20233;-57
2023/03/03 13:29:46;;;;;;;42.10;22.90;;;;;;;-145.49;100.00;55703.94;2083129;28;20197;-57
2023/03/03 13:30:53;;;;;;;39.95;21.67;;;;;;;-145.49;100.00;55703.94;2084183;28;20196;-58
2023/03/03 13:32:07;;;;;;;37.90;21.20;;;;;;;-145.49;100.00;55703.94;2083949;28;20220;-58
2023/03/03 13:33:26;;;;;;;36.97;20.75;;;;;;;-145.49;100.00;55703.94;2082836;28;20189;-58
2023/03/03 13:34:52;;;;;;;34.60;21.95;;;;;;;-145.49;100.00;55703.94;2083356;28;20253;-57
2023/03/03 13:35:59;;;;;;;38.33;21.20;;;;;;;-145.49;100.00;55703.94;2082905;28;20204;-57
2023/03/03 13:37:09;;;;;;;39.05;19.85;;;;;;;-145.49;100.00;55703.94;2082063;28;20675;-58
2023/03/03 13:38:24;;;;;;;36.17;20.85;;;;;;;-145.49;100.00;55703.94;2082961;28;20283;-57
2023/03/03 13:39:30;;;;;;;37.55;21.92;;;;;;;-145.49;100.00;55703.94;2083723;28;20787;-58
2023/03/03 13:40:42;;;;;;;36.45;21.42;;;;;;;-145.49;100.00;55703.94;2084265;28;20292;-57
2023/03/03 13:42:10;;;;;;;36.28;21.17;;;;;;;-145.49;100.00;55703.94;2081299;28;20232;-57
2023/03/03 13:43:22;;;;;;;35.88;21.80;;;;;;;-145.49;100.00;55703.94;2078483;28;20235;-56
2023/03/03 13:44:33;;;;;;;108.25;58.63;;;;;;;-145.49;100.00;55703.94;2084172;28;20201;-57
2023/03/03 13:45:50;;;;;;;177.05;95.80;;;;;;;-145.49;100.00;55703.94;2082993;28;20279;-57
2023/03/03 13:47:28;;;;;;;112.47;64.72;;;;;;;-145.49;100.00;55703.94;2083148;28;20223;-58
2023/03/03 13:48:32;;;;;;;37.10;20.88;;;;;;;-145.49;100.00;55703.94;2087280;28;20288;-57
2023/03/03 13:49:42;;;;;;;37.13;21.88;;;;;;;-145.49;100.00;55703.94;2084446;28;20207;-57
2023/03/03 13:50:52;;;;;;;43.15;22.50;;;;;;;-145.49;100.00;55703.94;2082875;28;20196;-57
2023/03/03 13:52:20;;;;;;;38.25;21.52;;;;;;;-145.49;100.00;55703.94;2083498;28;20221;-58
2023/03/03 13:53:51;;;;;;;34.63;21.38;;;;;;;-145.49;100.00;55703.94;2085593;28;20513;-58
2023/03/03 13:55:19;;;;;;;31.55;20.50;;;;;;;-145.49;100.00;55703.94;2084881;28;20205;-58
2023/03/03 13:56:37;;;;;;;38.03;20.42;;;;;;;-145.49;100.00;55703.94;2085722;28;20837;-57
2023/03/03 13:57:59;;;;;;;41.83;21.95;;;;;;;-145.49;100.00;55703.94;2083294;28;20201;-59
2023/03/03 13:59:14;;;;;;;41.17;23.38;;;;;;;-145.49;100.00;55703.94;2081219;28;20201;-58
2023/03/03 14:00:50;;;;;;;37.15;21.33;;;;;;;-145.49;100.00;55703.94;2082988;28;20200;-58
2023/03/03 14:02:09;;;;;;;38.33;21.00;;;;;;;-145.49;100.00;55703.94;2083392;28;20232;-57
2023/03/03 14:03:24;;;;;;;38.20;20.98;;;;;;;-145.49;100.00;55703.94;2085185;28;20262;-58
2023/03/03 14:04:51;;;;;;;41.90;22.48;;;;;;;-145.49;100.00;55703.94;2086065;28;20199;-57
2023/03/03 14:06:08;;;;;;;40.65;21.77;;;;;;;-145.49;100.00;55703.94;2084394;28;20192;-57
2023/03/03 14:07:16;;;;;;;42.25;22.35;;;;;;;-145.49;100.00;55703.94;2083882;28;20246;-58
2023/03/03 14:08:42;;;;;;;36.50;21.38;;;;;;;-145.49;100.00;55703.94;2083859;28;20213;-57
2023/03/03 14:09:56;;;;;;;36.97;21.60;;;;;;;-145.49;100.00;55703.94;2083701;28;20201;-57
2023/03/03 14:11:31;;;;;;;39.00;22.65;;;;;;;-145.49;100.00;55703.94;2082735;28;20201;-58
2023/03/03 14:12:36;;;;;;;40.58;22.55;;;;;;;-145.49;100.00;55703.94;2092246;28;20207;-57
2023/03/03 14:14:10;;;;;;;39.92;21.98;;;;;;;-145.49;100.00;55703.94;2091651;28;20192;-57
2023/03/03 14:15:23;;;;;;;42.72;21.50;;;;;;;-145.49;100.00;55703.94;2064647;28;20206;-57
2023/03/03 14:17:02;;;;;;;41.47;22.38;;;;;;;-145.49;100.00;55703.94;2066438;28;20233;-58
2023/03/03 14:18:31;;;;;;;38.08;20.38;;;;;;;-145.49;100.00;55703.94;2085307;28;20212;-57
2023/03/03 14:19:38;;;;;;;35.20;21.33;;;;;;;-145.49;100.00;55703.94;2084374;28;20576;-57
2023/03/03 14:20:52;;;;;;;36.35;22.60;;;;;;;-145.49;100.00;55703.94;2089203;28;20204;-58
2023/03/03 14:22:04;;;;;;;39.60;21.52;;;;;;;-145.49;100.00;55703.94;2082971;28;20242;-57
2023/03/03 14:23:16;;;;;;;38.25;22.42;;;;;;;-145.49;100.00;55703.94;2084570;28;20197;-57
2023/03/03 14:24:20;;;;;;;33.80;21.60;;;;;;;-145.49;100.00;55703.94;2092206;28;20279;-58
2023/03/03 14:25:21;;;;;;;37.88;22.60;;;;;;;-145.49;100.00;55703.94;2088206;28;20287;-57
2023/03/03 14:26:23;;;;;;;35.53;22.05;;;;;;;-145.49;100.00;55703.94;2085401;28;20201;-57
2023/03/03 14:27:32;;;;;;;34.00;21.83;;;;;;;-145.49;100.00;55703.94;2083333;28;20722;-57
2023/03/03 14:28:47;;;;;;;34.00;20.80;;;;;;;-145.49;100.00;55703.94;2082417;28;20295;-58
2023/03/03 14:29:48;;;;;;;39.38;21.63;;;;;;;-145.49;100.00;55703.94;2085938;28;20200;-58
2023/03/03 14:30:54;;;;;;;39.90;23.13;;;;;;;-145.49;100.00;55703.94;2083422;28;20637;-61
2023/03/03 14:31:58;;;;;;;36.40;22.25;;;;;;;-145.49;100.00;55703.94;2087574;28;20236;-58
2023/03/03 14:33:09;;;;;;;37.95;25.15;;;;;;;-145.49;100.00;55703.94;2083266;28;20638;-58
2023/03/03 14:34:10;;;;;;;257.98;140.13;;;;;;;-145.49;100.00;55703.94;2082805;28;20205;-58
2023/03/03 14:35:19;;;;;;;52.60;27.05;;;;;;;-145.49;100.00;55703.94;2084275;28;20225;-58
2023/03/03 14:36:26;;;;;;;34.05;21.83;;;;;;;-145.49;100.00;55703.94;2083657;28;20209;-58
2023/03/03 14:37:45;;;;;;;41.85;22.55;;;;;;;-145.49;100.00;55703.94;2084147;28;20258;-57
2023/03/03 14:38:47;;;;;;;44.90;23.65;;;;;;;-145.49;100.00;55703.94;2081540;28;20197;-57
2023/03/03 14:40:05;;;;;;;44.05;23.45;;;;;;;-145.49;100.00;55703.94;2080745;28;20251;-58
2023/03/03 14:41:09;;;;;;;40.50;21.70;;;;;;;-145.49;100.00;55703.94;2082479;28;21048;-58
2023/03/03 14:42:31;;;;;;;44.08;22.25;;;;;;;-145.49;100.00;55703.94;2075561;28;20611;-57